Time;durP1;ratioP1;P1;durP2;ratioP2;P2;SDS_P1;SDS_P2;PMS_P1;PMS_P2;Temp;Humidity;BMP_temperature;BMP_pressure;BME280_temperature;BME280_humidity;BME280_pressure;Samples;Min_cycle;Max_cycle;Signal;HPM_P1;HPM_P2
2021/09/07 00:07:30;;;;;;;1999.90;999.90;;;;;;;19.17;71.12;101881.19;15781408;28;20036;-57
2021/09/07 00:15:06;;;;;;;1999.90;999.90;;;;;;;19.21;70.90;101868.00;15770998;28;20675;-58
2021/09/07 00:22:39;;;;;;;1999.90;999.90;;;;;;;19.20;70.98;101868.34;15744188;28;20049;-55
2021/09/07 00:30:14;;;;;;;1999.90;999.90;;;;;;;19.18;71.10;101868.72;15777059;28;20561;-57
2021/09/07 00:37:47;;;;;;;1999.90;999.90;;;;;;;19.03;71.69;101869.53;15788921;28;20048;-55
2021/09/07 00:45:21;;;;;;;1999.90;999.90;;;;;;;18.94;71.27;101855.53;15780973;28;20155;-57
2021/09/07 00:52:55;;;;;;;1999.90;999.90;;;;;;;18.93;71.14;101848.25;15797780;28;20047;-57
2021/09/07 01:00:28;;;;;;;1999.90;999.90;;;;;;;19.03;71.06;101861.03;15774754;28;20036;-59
2021/09/07 01:08:01;;;;;;;1999.90;999.90;;;;;;;18.87;71.50;101848.91;15767172;28;20043;-60
2021/09/07 01:15:36;;;;;;;1999.90;999.90;;;;;;;18.96;71.23;101847.50;15795399;28;20094;-58
2021/09/07 01:23:10;;;;;;;1999.90;999.90;;;;;;;18.88;71.15;101847.72;15785528;28;20045;-59
2021/09/07 01:30:44;;;;;;;1999.90;999.90;;;;;;;18.88;71.08;101853.38;15795538;28;20087;-56
2021/09/07 01:38:19;;;;;;;1999.90;999.90;;;;;;;18.78;71.07;101851.06;15783799;28;20048;-58
2021/09/07 01:45:54;;;;;;;1999.90;999.90;;;;;;;18.67;71.52;101851.59;15758283;28;20559;-55
2021/09/07 01:53:31;;;;;;;1999.90;999.90;;;;;;;18.62;71.83;101857.44;15766933;28;20563;-57
2021/09/07 02:01:05;;;;;;;1999.90;999.90;;;;;;;18.65;72.09;101865.25;15781456;28;20086;-58
2021/09/07 02:08:37;;;;;;;1999.90;999.90;;;;;;;18.53;72.12;101865.25;15748429;28;20542;-58
2021/09/07 02:16:12;;;;;;;1999.90;999.90;;;;;;;18.47;72.40;101858.25;15767673;28;20053;-63
2021/09/07 02:23:46;;;;;;;1999.90;999.90;;;;;;;18.25;72.80;101856.78;15769936;28;20059;-57
2021/09/07 02:31:20;;;;;;;;;;;;;;;18.23;73.07;101859.13;15781873;28;20405;-58
2021/09/07 02:38:58;;;;;;;1999.90;999.90;;;;;;;18.05;73.36;101840.84;15783203;28;19926;-57
2021/09/07 02:46:32;;;;;;;1999.90;999.90;;;;;;;17.99;73.52;101850.72;15751637;28;20049;-56
2021/09/07 02:54:05;;;;;;;1999.90;999.90;;;;;;;17.87;73.61;101846.75;15732699;28;20097;-55
2021/09/07 03:01:39;;;;;;;1999.90;999.90;;;;;;;17.75;74.30;101837.47;15751763;28;20128;-57
2021/09/07 03:09:12;;;;;;;1999.90;999.90;;;;;;;17.66;74.32;101856.50;15767686;28;20566;-60
2021/09/07 03:16:48;;;;;;;1999.90;999.90;;;;;;;17.48;74.83;101842.63;15787787;28;20051;-55
2021/09/07 03:24:23;;;;;;;1999.90;999.90;;;;;;;17.28;75.15;101847.22;15779568;28;20040;-55
2021/09/07 03:31:58;;;;;;;1999.90;999.90;;;;;;;17.19;74.83;101856.94;15790746;28;20109;-55
2021/09/07 03:39:30;;;;;;;1999.90;999.90;;;;;;;17.00;75.03;101858.34;15751666;28;20048;-55
2021/09/07 03:47:05;;;;;;;1999.90;999.90;;;;;;;16.87;74.83;101859.47;15752741;28;20049;-62
2021/09/07 03:54:38;;;;;;;1999.90;999.90;;;;;;;16.73;74.96;101859.81;15771597;28;20143;-59
2021/09/07 04:02:11;;;;;;;1999.90;999.90;;;;;;;16.56;75.22;101868.38;15787275;28;20403;-58
2021/09/07 04:09:44;;;;;;;1999.90;999.90;;;;;;;16.53;75.22;101876.72;15792231;28;20044;-57
2021/09/07 04:17:20;;;;;;;1999.90;999.90;;;;;;;16.40;76.25;101875.84;15777866;28;20046;-58
2021/09/07 04:24:53;;;;;;;1999.90;999.90;;;;;;;16.51;76.26;101879.88;15778376;28;20097;-56
2021/09/07 04:32:26;;;;;;;1999.90;999.90;;;;;;;16.61;77.46;101893.53;15800898;28;20097;-58
2021/09/07 04:39:59;;;;;;;1999.90;999.90;;;;;;;16.84;77.46;101896.00;15772963;28;20590;-55
2021/09/07 04:47:32;;;;;;;1999.90;999.90;;;;;;;17.14;77.01;101899.50;15793739;28;20076;-56
2021/09/07 04:55:08;;;;;;;1999.90;999.90;;;;;;;17.20;77.12;101907.41;15782724;28;20052;-57
2021/09/07 05:02:45;;;;;;;1999.90;999.90;;;;;;;17.45;76.52;101899.78;15798996;28;20094;-56
2021/09/07 05:10:17;;;;;;;1999.90;999.90;;;;;;;17.37;76.63;101912.00;15803566;28;20032;-56
2021/09/07 05:17:51;;;;;;;1999.90;999.90;;;;;;;17.33;76.53;101919.53;15797178;28;20055;-58
2021/09/07 05:25:23;;;;;;;1999.90;999.90;;;;;;;17.50;76.42;101930.56;15763597;28;20046;-55
2021/09/07 05:32:57;;;;;;;1999.90;999.90;;;;;;;17.72;75.74;101932.19;15774943;28;20039;-60
2021/09/07 05:40:29;;;;;;;1999.90;999.90;;;;;;;17.72;75.69;101942.66;15777891;28;20051;-57
2021/09/07 05:48:03;;;;;;;1999.90;999.90;;;;;;;17.70;75.51;101945.78;15768642;28;20444;-57
2021/09/07 05:55:35;;;;;;;1999.90;999.90;;;;;;;17.61;75.69;101939.41;15743873;28;20059;-58
2021/09/07 06:03:09;;;;;;;1999.90;999.90;;;;;;;17.62;75.74;101943.91;15743635;28;20044;-57
2021/09/07 06:10:41;;;;;;;1999.90;999.90;;;;;;;17.70;75.68;101950.63;15797590;28;20048;-57
2021/09/07 06:18:15;;;;;;;1999.90;999.90;;;;;;;17.85;75.05;101962.06;15806119;28;20105;-58
2021/09/07 06:25:47;;;;;;;1999.90;999.90;;;;;;;18.03;74.49;101956.16;15805041;28;20147;-57
2021/09/07 06:33:22;;;;;;;1999.90;999.90;;;;;;;18.77;73.15;101968.19;15802493;28;20105;-53
2021/09/07 06:40:54;;;;;;;1999.90;999.90;;;;;;;19.30;70.25;101966.88;15803762;28;20059;-56
2021/09/07 06:48:28;;;;;;;1999.90;999.90;;;;;;;19.72;70.80;101964.38;15804070;28;20074;-60
2021/09/07 06:56:01;;;;;;;1999.90;999.90;;;;;;;20.28;67.48;101960.44;15803044;28;20479;-55
2021/09/07 07:03:35;;;;;;;1999.90;999.90;;;;;;;20.96;65.05;101971.31;15800834;28;20040;-58
2021/09/07 07:11:07;;;;;;;1999.90;999.90;;;;;;;21.41;63.04;101973.41;15744645;28;20041;-54
2021/09/07 07:18:41;;;;;;;1999.90;999.90;;;;;;;21.20;62.73;101982.31;15738461;28;20051;-58
2021/09/07 07:26:13;;;;;;;1999.90;999.90;;;;;;;22.29;61.02;101973.28;15739398;28;20040;-58
2021/09/07 07:33:47;;;;;;;1999.90;999.90;;;;;;;22.64;59.30;101987.22;15740395;28;20391;-58
2021/09/07 07:41:19;;;;;;;1999.90;999.90;;;;;;;22.79;57.93;101979.69;15769367;28;20051;-56
2021/09/07 07:48:54;;;;;;;1999.90;999.90;;;;;;;22.51;58.53;101990.66;15860250;28;20036;-55
2021/09/07 07:56:27;;;;;;;1999.90;999.90;;;;;;;23.19;57.64;101998.09;15859956;28;20043;-55
2021/09/07 08:04:01;;;;;;;1999.90;999.90;;;;;;;23.16;56.47;102002.56;15859130;28;20654;-56
2021/09/07 08:11:33;;;;;;;1999.90;999.90;;;;;;;23.43;55.07;102014.63;15856775;28;20044;-56
2021/09/07 08:19:07;;;;;;;1999.90;999.90;;;;;;;23.71;55.13;102007.63;15861481;28;20050;-59
2021/09/07 08:26:41;;;;;;;1999.90;999.90;;;;;;;23.81;55.27;102018.31;15858821;28;20497;-57
2021/09/07 08:34:15;;;;;;;1999.90;999.90;;;;;;;24.16;54.69;102021.47;15850051;28;20441;-56
2021/09/07 08:41:48;;;;;;;1999.90;999.90;;;;;;;24.90;53.29;102019.50;15850535;28;20546;-57
2021/09/07 08:49:21;;;;;;;;;;;;;;;24.44;52.62;102009.47;15813454;28;20040;-57
2021/09/07 08:56:53;;;;;;;1999.90;999.90;;;;;;;24.76;52.64;102020.28;15815030;28;19920;-58
2021/09/07 09:04:28;;;;;;;1999.90;999.90;;;;;;;25.07;51.28;102027.38;15817298;28;20040;-58
2021/09/07 09:12:01;;;;;;;1999.90;999.90;;;;;;;25.99;50.39;102020.28;15832894;28;20035;-58
2021/09/07 09:19:48;;;;;;;1999.90;999.90;;;;;;;25.84;49.53;102025.97;15827252;28;20457;-56
2021/09/07 09:27:27;;;;;;;1999.90;999.90;;;;;;;25.89;50.93;102039.06;15854062;28;20493;-56
2021/09/07 09:35:09;;;;;;;1999.90;999.90;;;;;;;25.82;50.77;102039.03;15858444;28;20169;-57
2021/09/07 09:42:43;;;;;;;1999.90;999.90;;;;;;;25.66;48.30;102027.97;15867763;28;20043;-57
2021/09/07 09:50:17;;;;;;;1999.90;999.90;;;;;;;26.51;48.05;102034.97;15865113;28;20538;-58
2021/09/07 09:57:49;;;;;;;1999.90;999.90;;;;;;;25.46;47.70;102035.28;15813811;28;20122;-56
2021/09/07 10:05:23;;;;;;;;;;;;;;;26.68;47.01;102026.34;15845969;28;20050;-58
2021/09/07 10:13:00;;;;;;;1999.90;999.90;;;;;;;27.29;46.11;102024.06;15855942;28;20380;-56
2021/09/07 10:21:03;;;;;;;1999.90;999.90;;;;;;;26.10;48.08;102019.03;15862596;28;20130;-55
2021/09/07 10:28:40;;;;;;;1999.90;999.90;;;;;;;27.58;44.90;102015.31;15857282;28;20048;-56
2021/09/07 10:36:20;;;;;;;1999.90;999.90;;;;;;;25.97;46.99;102009.25;15857025;28;20044;-59
2021/09/07 10:43:58;;;;;;;1999.90;999.90;;;;;;;27.80;46.11;102019.69;15858848;28;20040;-57
2021/09/07 10:52:14;;;;;;;1999.90;999.90;;;;;;;27.56;44.89;102009.19;15855256;28;20397;-57
2021/09/07 10:59:50;;;;;;;1999.90;999.90;;;;;;;29.23;43.10;102012.50;15850960;28;20405;-56
2021/09/07 11:07:41;;;;;;;1999.90;999.90;;;;;;;28.58;42.51;102011.66;15857076;28;20043;-55
2021/09/07 11:15:13;;;;;;;1999.90;999.90;;;;;;;26.54;46.42;102000.63;15856960;28;20048;-57
2021/09/07 11:22:48;;;;;;;1999.90;999.90;;;;;;;27.00;45.65;102008.25;15821479;28;20044;-59
2021/09/07 11:30:32;;;;;;;1999.90;999.90;;;;;;;27.30;44.83;102005.69;15851731;28;20052;-57
2021/09/07 11:38:07;;;;;;;1999.90;999.90;;;;;;;25.31;47.49;102006.66;15850821;28;20043;-56
2021/09/07 11:45:41;;;;;;;1999.90;999.90;;;;;;;24.94;49.27;102008.94;15856243;28;20039;-55
2021/09/07 11:53:18;;;;;;;1999.90;999.90;;;;;;;28.18;44.02;102003.41;15835407;28;20135;-58
2021/09/07 12:01:02;;;;;;;1999.90;999.90;;;;;;;29.53;40.64;102015.41;15845224;28;20097;-56
2021/09/07 12:08:43;;;;;;;1999.90;999.90;;;;;;;28.82;42.91;102015.47;15860811;28;20055;-55
2021/09/07 12:16:23;;;;;;;1999.90;999.90;;;;;;;27.68;43.79;102010.78;15854640;28;20044;-58
2021/09/07 12:23:57;;;;;;;1999.90;999.90;;;;;;;25.87;46.98;102001.47;15855277;28;20520;-55
2021/09/07 12:31:33;;;;;;;1999.90;999.90;;;;;;;27.93;43.24;101999.94;15855746;28;20043;-54
2021/09/07 12:39:06;;;;;;;1999.90;999.90;;;;;;;32.12;34.71;101991.22;15859608;28;20472;-56
2021/09/07 12:46:39;;;;;;;1999.90;999.90;;;;;;;31.03;36.14;101984.72;15819903;28;20123;-57
2021/09/07 12:54:16;;;;;;;1999.90;999.90;;;;;;;30.63;37.42;101974.44;15851833;28;20175;-59
2021/09/07 13:01:49;;;;;;;1999.90;999.90;;;;;;;27.02;44.61;101968.56;15841593;28;20055;-57
2021/09/07 13:09:23;;;;;;;1999.90;999.90;;;;;;;31.84;36.16;101963.09;15854810;28;20036;-54
2021/09/07 13:16:56;;;;;;;1999.90;999.90;;;;;;;34.25;31.59;101964.91;15854484;28;20047;-59
2021/09/07 13:24:30;;;;;;;1999.90;999.90;;;;;;;31.99;36.49;101967.22;15861987;28;20369;-58
2021/09/07 13:32:02;;;;;;;1999.90;999.90;;;;;;;31.84;35.20;101963.91;15851527;28;20040;-56
2021/09/07 13:39:36;;;;;;;1999.90;999.90;;;;;;;29.16;37.64;101966.63;15851331;28;20048;-54
2021/09/07 13:47:08;;;;;;;1999.90;999.90;;;;;;;29.99;36.90;101950.53;15811360;28;20404;-57
2021/09/07 13:54:42;;;;;;;1999.90;999.90;;;;;;;27.60;42.13;101950.56;15814702;28;20032;-57
2021/09/07 14:02:20;;;;;;;1999.90;999.90;;;;;;;27.47;43.47;101955.19;15833869;28;20053;-57
2021/09/07 14:09:53;;;;;;;1999.90;999.90;;;;;;;26.30;44.43;101941.38;15851837;28;20040;-60
2021/09/07 14:17:26;;;;;;;1999.90;999.90;;;;;;;26.10;46.67;101947.53;15857946;28;20047;-58
2021/09/07 14:24:59;;;;;;;1999.90;999.90;;;;;;;25.99;46.23;101943.06;15854741;28;20063;-57
2021/09/07 14:32:31;;;;;;;1999.90;999.90;;;;;;;25.57;47.29;101941.81;15856660;28;20043;-59
2021/09/07 14:40:07;;;;;;;1999.90;999.90;;;;;;;25.66;48.50;101935.69;15830061;28;20036;-58
2021/09/07 14:47:39;;;;;;;1999.90;999.90;;;;;;;25.31;49.53;101932.38;15808569;28;20051;-56
2021/09/07 14:55:13;;;;;;;;;;;;;;;25.44;47.14;101929.16;15842908;28;20063;-55
2021/09/07 15:02:46;;;;;;;1999.90;999.90;;;;;;;25.43;47.70;101924.63;15840223;28;20015;-54
2021/09/07 15:10:19;;;;;;;1999.90;999.90;;;;;;;25.21;48.43;101926.63;15836753;28;20040;-53
2021/09/07 15:17:53;;;;;;;1999.90;999.90;;;;;;;24.94;48.57;101917.59;15849116;28;20058;-60
2021/09/07 15:25:26;;;;;;;1999.90;999.90;;;;;;;24.85;47.76;101917.16;15784114;28;20048;-58
2021/09/07 15:33:12;;;;;;;1999.90;999.90;;;;;;;24.69;48.53;101906.88;15781250;28;20040;-53
2021/09/07 15:40:49;;;;;;;1999.90;999.90;;;;;;;24.70;49.39;101910.56;15771835;28;20043;-63
2021/09/07 15:48:22;;;;;;;1999.90;999.90;;;;;;;24.43;52.02;101908.00;15773871;28;20052;-60
2021/09/07 15:55:55;;;;;;;1999.90;999.90;;;;;;;24.29;52.66;101898.53;15750788;28;20124;-60
2021/09/07 16:03:27;;;;;;;1999.90;999.90;;;;;;;24.21;53.12;101897.66;15766133;28;20072;-57
2021/09/07 16:11:01;;;;;;;1999.90;999.90;;;;;;;23.99;54.17;101895.91;15776426;28;20047;-57
2021/09/07 16:18:33;;;;;;;1999.90;999.90;;;;;;;23.87;55.13;101897.06;15804776;28;20109;-60
2021/09/07 16:26:21;;;;;;;1999.90;999.90;;;;;;;23.70;55.59;101900.56;15803622;28;20044;-57
2021/09/07 16:34:00;;;;;;;1999.90;999.90;;;;;;;23.60;55.54;101896.41;15789106;28;20094;-56
2021/09/07 16:41:55;;;;;;;1999.90;999.90;;;;;;;23.48;56.62;101885.31;15752069;28;20095;-56
2021/09/07 16:49:41;;;;;;;1999.90;999.90;;;;;;;23.35;55.96;101881.94;15790714;28;20459;-54
2021/09/07 16:57:16;;;;;;;1999.90;999.90;;;;;;;23.17;56.52;101872.41;15789688;28;20075;-55
2021/09/07 17:13:33;;;;;;;1999.90;999.90;;;;;;;22.72;58.54;101874.34;15765060;28;20446;-56
2021/09/07 17:21:05;;;;;;;1999.90;999.90;;;;;;;22.40;59.65;101862.53;15778482;28;20105;-56
2021/09/07 17:29:12;;;;;;;1999.90;999.90;;;;;;;22.22;60.54;101858.69;15796237;28;20394;-59
2021/09/07 17:37:26;;;;;;;1999.90;999.90;;;;;;;21.87;61.55;101868.28;15799473;28;20056;-59
2021/09/07 17:44:59;;;;;;;1999.90;999.90;;;;;;;21.57;62.71;101860.53;15788172;28;20130;-55
2021/09/07 17:52:31;;;;;;;1999.90;999.90;;;;;;;21.28;64.00;101861.25;15761687;28;20099;-57
2021/09/07 18:00:13;;;;;;;1999.90;999.90;;;;;;;21.02;65.00;101864.78;15772918;28;20037;-57
2021/09/07 18:07:48;;;;;;;1999.90;999.90;;;;;;;20.77;65.79;101872.03;15801921;28;20139;-57
2021/09/07 18:15:22;;;;;;;1999.90;999.90;;;;;;;20.53;65.41;101875.97;15792353;28;20475;-57
2021/09/07 18:22:56;;;;;;;1999.90;999.90;;;;;;;20.31;65.79;101880.34;15771171;28;20068;-57
2021/09/07 18:30:31;;;;;;;1999.90;999.90;;;;;;;20.04;66.50;101885.84;15760514;28;20044;-56
2021/09/07 18:38:04;;;;;;;1999.90;999.90;;;;;;;19.93;66.91;101886.78;15760239;28;20036;-53
2021/09/07 18:45:39;;;;;;;1999.90;999.90;;;;;;;19.76;67.42;101888.81;15777800;28;20048;-57
2021/09/07 18:53:11;;;;;;;1999.90;999.90;;;;;;;19.56;68.19;101902.06;15771726;28;20075;-55
2021/09/07 19:00:45;;;;;;;1999.90;999.90;;;;;;;19.62;68.13;101891.31;15766012;28;20131;-63
2021/09/07 19:08:17;;;;;;;1999.90;999.90;;;;;;;19.45;68.48;101891.63;15740576;28;20124;-54
2021/09/07 19:15:51;;;;;;;1999.90;999.90;;;;;;;19.32;68.84;101902.22;15771007;28;20051;-59
2021/09/07 19:23:24;;;;;;;1999.90;999.90;;;;;;;19.13;68.99;101894.44;15803615;28;20047;-57
2021/09/07 19:30:58;;;;;;;;;;;;;;;19.03;69.44;101895.78;15783400;28;20067;-58
2021/09/07 19:38:32;;;;;;;1999.90;999.90;;;;;;;18.83;69.79;101888.38;15750951;28;19920;-60
2021/09/07 19:46:06;;;;;;;1999.90;999.90;;;;;;;18.71;70.33;101894.91;15759541;28;20051;-55
2021/09/07 19:53:38;;;;;;;1999.90;999.90;;;;;;;18.62;70.78;101899.84;15796350;28;20036;-56
2021/09/07 20:01:12;;;;;;;1999.90;999.90;;;;;;;18.51;71.03;101889.41;15746512;28;20044;-55
2021/09/07 20:08:44;;;;;;;1999.90;999.90;;;;;;;18.31;71.58;101889.25;15749441;28;20045;-60
2021/09/07 20:16:18;;;;;;;1999.90;999.90;;;;;;;18.22;71.39;101887.75;15784847;28;20472;-60
2021/09/07 20:23:50;;;;;;;1999.90;999.90;;;;;;;18.06;71.69;101876.38;15764922;28;20059;-61
2021/09/07 20:31:24;;;;;;;1999.90;999.90;;;;;;;18.02;71.48;101884.72;15750406;28;20094;-57
2021/09/07 20:38:57;;;;;;;1999.90;999.90;;;;;;;17.96;71.83;101891.81;15759321;28;20458;-56
2021/09/07 20:46:30;;;;;;;1999.90;999.90;;;;;;;17.88;72.22;101884.28;15775576;28;20048;-58
2021/09/07 20:54:03;;;;;;;1999.90;999.90;;;;;;;17.67;72.76;101886.38;15772083;28;20050;-55
2021/09/07 21:01:37;;;;;;;1999.90;999.90;;;;;;;17.61;72.69;101888.59;15799129;28;20052;-56
2021/09/07 21:09:09;;;;;;;1999.90;999.90;;;;;;;17.27;73.63;101899.16;15790367;28;20044;-59
2021/09/07 21:16:44;;;;;;;;;;;;;;;17.48;72.56;101893.44;15783148;28;20071;-56
2021/09/07 21:24:16;;;;;;;1999.90;999.90;;;;;;;17.30;72.88;101892.03;15805467;28;19980;-55
2021/09/07 21:31:50;;;;;;;1999.90;999.90;;;;;;;17.18;72.93;101889.16;15764032;28;20036;-54
2021/09/07 21:39:22;;;;;;;1999.90;999.90;;;;;;;16.99;73.04;101882.09;15763072;28;20097;-57
2021/09/07 21:46:57;;;;;;;1999.90;999.90;;;;;;;17.05;72.99;101874.22;15780290;28;20036;-53
2021/09/07 21:54:29;;;;;;;1999.90;999.90;;;;;;;16.88;73.03;101878.06;15768002;28;20489;-56
2021/09/07 22:02:03;;;;;;;1999.90;999.90;;;;;;;16.85;73.00;101886.38;15757018;28;20101;-56
2021/09/07 22:09:35;;;;;;;1999.90;999.90;;;;;;;16.71;73.44;101881.06;15801737;28;20599;-59
2021/09/07 22:17:09;;;;;;;1999.90;999.90;;;;;;;16.56;73.21;101885.28;15801852;28;20136;-57
2021/09/07 22:24:42;;;;;;;1999.90;999.90;;;;;;;16.55;73.67;101878.00;15773348;28;20413;-58
2021/09/07 22:32:15;;;;;;;1999.90;999.90;;;;;;;16.41;74.13;101874.66;15762178;28;20135;-58
2021/09/07 22:39:48;;;;;;;1999.90;999.90;;;;;;;16.36;73.92;101878.53;15784027;28;20048;-57
2021/09/07 22:47:22;;;;;;;1999.90;999.90;;;;;;;16.35;73.71;101868.41;15784025;28;20048;-57
2021/09/07 22:54:55;;;;;;;1999.90;999.90;;;;;;;16.28;73.57;101872.97;15782246;28;20045;-56
2021/09/07 23:02:30;;;;;;;1999.90;999.90;;;;;;;16.19;74.58;101875.03;15785506;28;20067;-55
2021/09/07 23:10:03;;;;;;;1999.90;999.90;;;;;;;16.12;74.09;101872.75;15791632;28;20048;-55
2021/09/07 23:17:37;;;;;;;;;;;;;;;16.11;73.42;101871.94;15765746;28;20404;-58
2021/09/07 23:25:09;;;;;;;;;;;;;;;16.01;73.68;101857.44;15796365;28;19973;-54
2021/09/07 23:32:43;;;;;;;1999.90;999.90;;;;;;;15.93;73.11;101852.69;15793563;28;19963;-57
2021/09/07 23:40:15;;;;;;;1999.90;999.90;;;;;;;15.81;73.48;101857.06;15759641;28;20084;-55
2021/09/07 23:47:49;;;;;;;1999.90;999.90;;;;;;;15.69;74.06;101856.16;15793344;28;20071;-54
2021/09/07 23:55:22;;;;;;;1999.90;999.90;;;;;;;15.55;74.34;101859.19;15757713;28;20048;-58
